createdAt,value
2019-02-10T00:03:23.924Z,13.43
2019-02-10T00:08:18.707Z,13.30
2019-02-10T00:13:25.499Z,15.43
2019-02-10T00:18:20.559Z,11.07
2019-02-10T00:23:15.326Z,15.33
2019-02-10T00:28:10.536Z,19.10
2019-02-10T00:33:05.391Z,13.47
2019-02-10T00:38:00.169Z,13.40
2019-02-10T00:42:54.958Z,16.87
2019-02-10T00:47:50.394Z,14.17
2019-02-10T00:52:45.155Z,11.10
2019-02-10T00:57:39.933Z,14.40
2019-02-10T01:02:34.698Z,13.07
2019-02-10T01:07:30.152Z,15.83
2019-02-10T01:12:25.666Z,12.40
2019-02-10T01:17:20.441Z,14.23
2019-02-10T01:22:15.300Z,15.70
2019-02-10T01:27:10.517Z,12.90
2019-02-10T01:32:05.295Z,9.43
2019-02-10T01:37:00.062Z,13.00
2019-02-10T01:41:56.096Z,14.87
2019-02-10T01:46:50.870Z,18.73
2019-02-10T01:51:45.734Z,14.03
2019-02-10T01:56:40.507Z,16.53
2019-02-10T02:01:35.277Z,11.80
2019-02-10T02:06:30.129Z,13.27
2019-02-10T02:11:24.901Z,9.00
2019-02-10T02:16:19.740Z,14.07
2019-02-10T02:21:14.532Z,14.30
2019-02-10T02:26:09.307Z,14.23
2019-02-10T02:31:04.072Z,10.83
2019-02-10T02:35:58.834Z,8.87
2019-02-10T02:40:53.615Z,8.97
2019-02-10T02:45:48.402Z,14.83
2019-02-10T02:50:43.189Z,11.30
2019-02-10T02:55:37.979Z,10.83
2019-02-10T03:00:32.756Z,12.57
2019-02-10T03:05:27.895Z,12.30
2019-02-10T03:10:22.669Z,8.40
2019-02-10T03:15:17.791Z,10.87
2019-02-10T03:20:12.894Z,8.63
2019-02-10T03:25:08.054Z,11.40
2019-02-10T03:30:02.839Z,11.40
2019-02-10T03:34:57.635Z,12.80
2019-02-10T03:39:52.421Z,11.73
2019-02-10T03:44:47.295Z,10.60
2019-02-10T03:49:42.081Z,14.23
2019-02-10T03:54:36.868Z,8.37
2019-02-10T03:59:33.832Z,10.50
2019-02-10T04:04:28.861Z,10.03
2019-02-10T04:09:23.968Z,14.40
2019-02-10T04:14:18.769Z,4.90
2019-02-10T04:19:13.539Z,7.13
2019-02-10T04:24:08.309Z,14.00
2019-02-10T04:29:03.115Z,13.57
2019-02-10T04:33:58.150Z,7.80
2019-02-10T04:38:52.921Z,6.47
2019-02-10T04:43:49.014Z,6.73
2019-02-10T04:48:43.851Z,9.43
2019-02-10T04:53:38.872Z,8.50
2019-02-10T04:58:33.884Z,7.80
2019-02-10T05:03:29.432Z,11.03
2019-02-10T05:08:24.201Z,9.53
2019-02-10T05:13:18.993Z,10.40
2019-02-10T05:18:14.078Z,11.33
2019-02-10T05:23:08.861Z,6.43
2019-02-10T05:28:03.633Z,8.27
2019-02-10T05:32:58.401Z,4.53
2019-02-10T05:37:53.179Z,7.67
2019-02-10T05:42:48.246Z,6.67
2019-02-10T05:47:43.265Z,7.63
2019-02-10T05:52:38.040Z,8.17
2019-02-10T05:57:32.838Z,5.57
2019-02-10T06:02:32.602Z,8.10
2019-02-10T06:07:27.386Z,5.93
2019-02-10T06:12:22.931Z,6.40
2019-02-10T06:17:17.967Z,8.97
2019-02-10T06:22:12.740Z,4.73
2019-02-10T06:27:08.044Z,4.83
2019-02-10T06:32:03.119Z,5.90
2019-02-10T06:36:58.633Z,6.70
2019-02-10T06:41:53.416Z,7.77
2019-02-10T06:46:48.181Z,6.30
2019-02-10T06:51:43.219Z,4.87
2019-02-10T06:56:37.996Z,6.20
2019-02-10T07:01:39.667Z,8.30
2019-02-10T07:06:34.391Z,6.57
2019-02-10T07:11:29.182Z,4.70
2019-02-10T07:16:50.638Z,9.00
2019-02-10T07:21:48.181Z,3.33
2019-02-10T07:27:15.991Z,2.97
2019-02-10T07:32:16.584Z,4.40
2019-02-10T07:37:50.927Z,2.90
2019-02-10T07:43:05.319Z,3.67
2019-02-10T07:48:35.310Z,3.90
2019-02-10T07:53:52.292Z,3.33
2019-02-10T07:59:28.355Z,3.47
2019-02-10T08:04:44.078Z,3.07
2019-02-10T08:10:12.713Z,1.93
2019-02-10T08:15:33.309Z,2.43
2019-02-10T08:21:21.988Z,2.67
2019-02-10T08:26:57.782Z,3.67
2019-02-10T08:32:30.314Z,1.70
2019-02-10T08:38:00.803Z,2.87
2019-02-10T08:43:45.782Z,2.13
2019-02-10T08:48:57.272Z,2.77
2019-02-10T08:53:52.041Z,3.40
2019-02-10T08:58:46.832Z,1.87
2019-02-10T09:03:41.623Z,3.37
2019-02-10T09:08:36.382Z,2.77
2019-02-10T09:13:31.169Z,2.77
2019-02-10T09:18:26.258Z,1.53
2019-02-10T09:23:21.037Z,1.80
2019-02-10T09:28:16.338Z,3.13
2019-02-10T09:33:11.412Z,3.00
2019-02-10T09:38:06.336Z,1.70
2019-02-10T09:43:01.126Z,1.70
2019-02-10T09:47:55.919Z,4.07
2019-02-10T09:52:50.720Z,1.63
2019-02-10T09:57:46.031Z,1.87
2019-02-10T10:02:40.810Z,2.60
2019-02-10T10:07:35.614Z,3.60
2019-02-10T10:12:30.437Z,1.83
2019-02-10T10:17:25.208Z,2.73
2019-02-10T10:22:19.999Z,3.67
2019-02-10T10:27:14.777Z,3.00
2019-02-10T10:32:09.981Z,2.10
2019-02-10T10:37:05.130Z,1.80
2019-02-10T10:42:00.032Z,2.10
2019-02-10T10:46:54.807Z,2.53
2019-02-10T10:51:49.583Z,3.47
2019-02-10T10:56:44.662Z,2.43
2019-02-10T11:01:39.759Z,2.07
2019-02-10T11:06:34.556Z,1.80
2019-02-10T11:11:29.344Z,1.70
2019-02-10T11:16:24.124Z,1.80
2019-02-10T11:21:19.213Z,2.80
2019-02-10T11:26:14.344Z,2.00
2019-02-10T11:31:09.242Z,2.50
2019-02-10T11:36:04.035Z,1.80
2019-02-10T11:40:58.826Z,2.37
2019-02-10T11:45:59.691Z,3.10
2019-02-10T11:50:54.825Z,1.73
2019-02-10T11:55:49.614Z,2.00
2019-02-10T12:00:44.854Z,1.70
2019-02-10T12:05:41.646Z,2.17
2019-02-10T12:10:36.849Z,3.23
2019-02-10T12:15:31.951Z,2.50
2019-02-10T12:20:26.746Z,2.20
2019-02-10T12:25:21.514Z,3.70
2019-02-10T12:30:16.416Z,2.27
2019-02-10T12:35:11.393Z,1.97
2019-02-10T12:40:07.317Z,2.10
2019-02-10T12:45:02.123Z,3.47
2019-02-10T12:49:56.904Z,2.13
2019-02-10T12:54:51.996Z,1.90
2019-02-10T12:59:46.793Z,2.10
2019-02-10T13:04:41.575Z,4.30
2019-02-10T13:09:36.365Z,1.90
2019-02-10T13:14:31.236Z,1.87
2019-02-10T13:19:26.026Z,2.00
2019-02-10T13:24:21.133Z,3.20
2019-02-10T13:29:15.916Z,1.57
2019-02-10T13:34:10.727Z,1.73
2019-02-10T13:39:08.370Z,1.57
2019-02-10T13:44:05.322Z,1.77
2019-02-10T13:49:01.257Z,1.90
2019-02-10T13:53:56.369Z,1.63
2019-02-10T13:58:51.158Z,2.50
2019-02-10T14:03:45.942Z,1.90
2019-02-10T14:08:40.761Z,2.00
2019-02-10T14:13:35.510Z,2.00
2019-02-10T14:18:30.635Z,3.13
2019-02-10T14:23:25.421Z,2.00
2019-02-10T14:28:20.211Z,2.00
2019-02-10T14:33:15.015Z,1.60
2019-02-10T14:38:09.813Z,2.40
2019-02-10T14:43:04.668Z,1.87
2019-02-10T14:48:00.133Z,1.93
2019-02-10T14:52:54.906Z,2.40
2019-02-10T14:57:49.688Z,2.47
2019-02-10T15:02:44.551Z,8.47
2019-02-10T15:07:39.479Z,2.60
2019-02-10T15:12:34.289Z,1.70
2019-02-10T15:17:29.874Z,0.83
2019-02-10T15:22:24.847Z,1.10
2019-02-10T15:27:19.629Z,0.80
2019-02-10T15:32:16.805Z,0.70
2019-02-10T15:37:12.013Z,1.10
2019-02-10T15:42:09.409Z,1.27
2019-02-10T15:47:03.439Z,1.10
2019-02-10T15:51:58.256Z,0.80
2019-02-10T15:56:53.056Z,0.90
2019-02-10T16:01:48.121Z,0.90
2019-02-10T16:06:42.978Z,2.00
2019-02-10T16:11:38.003Z,0.80
2019-02-10T16:16:32.791Z,1.20
2019-02-10T16:21:27.618Z,0.93
2019-02-10T16:26:22.372Z,1.07
2019-02-10T16:31:17.152Z,2.60
2019-02-10T16:36:15.955Z,0.93
2019-02-10T16:41:10.735Z,1.00
2019-02-10T16:46:05.826Z,1.70
2019-02-10T16:51:00.629Z,0.90
2019-02-10T16:55:55.478Z,1.10
2019-02-10T17:00:50.376Z,1.00
2019-02-10T17:05:45.506Z,0.77
2019-02-10T17:10:40.306Z,0.43
2019-02-10T17:15:35.087Z,0.63
2019-02-10T17:20:29.881Z,0.50
2019-02-10T17:25:24.684Z,1.50
2019-02-10T17:30:19.488Z,1.30
2019-02-10T17:35:14.366Z,0.97
2019-02-10T17:40:13.135Z,1.17
2019-02-10T17:45:08.985Z,1.50
2019-02-10T17:50:03.785Z,1.07
2019-02-10T17:54:58.877Z,0.80
2019-02-10T17:59:53.967Z,0.90
2019-02-10T18:04:49.451Z,1.07
2019-02-10T18:09:50.559Z,0.97
2019-02-10T18:15:03.260Z,1.00
2019-02-10T18:20:15.754Z,0.70
2019-02-10T18:25:17.561Z,1.30
2019-02-10T18:30:32.645Z,1.10
2019-02-10T18:35:51.367Z,1.10
2019-02-10T18:41:11.400Z,2.07
2019-02-10T18:46:31.246Z,1.50
2019-02-10T18:51:35.602Z,2.00
2019-02-10T18:56:37.431Z,0.50
2019-02-10T19:01:51.649Z,0.60
2019-02-10T19:07:11.543Z,0.30
2019-02-10T19:12:21.242Z,0.50
2019-02-10T19:17:25.130Z,0.60
2019-02-10T19:22:42.023Z,0.50
2019-02-10T19:27:50.498Z,0.50
2019-02-10T19:33:01.982Z,0.77
2019-02-10T19:38:04.694Z,0.60
2019-02-10T19:43:30.799Z,1.00
2019-02-10T19:48:39.474Z,0.90
2019-02-10T19:54:12.539Z,0.97
2019-02-10T19:59:25.451Z,1.00
2019-02-10T20:04:48.843Z,1.17
2019-02-10T20:10:09.042Z,1.20
2019-02-10T20:15:21.997Z,1.70
2019-02-10T20:20:51.851Z,0.77
2019-02-10T20:26:21.202Z,0.90
2019-02-10T20:31:47.724Z,1.00
2019-02-10T20:36:59.383Z,0.80
2019-02-10T20:42:12.418Z,1.00
2019-02-10T20:47:20.030Z,0.80
2019-02-10T20:52:33.294Z,0.83
2019-02-10T20:58:01.935Z,1.03
2019-02-10T21:03:21.597Z,1.03
2019-02-10T21:08:32.978Z,1.03
2019-02-10T21:13:42.921Z,1.13
2019-02-10T21:18:51.555Z,0.80
2019-02-10T21:23:52.591Z,1.10
2019-02-10T21:28:56.819Z,0.90
2019-02-10T21:34:09.632Z,0.80
2019-02-10T21:39:18.123Z,1.17
2019-02-10T21:44:30.564Z,1.20
2019-02-10T21:49:26.792Z,1.07
2019-02-10T21:54:21.719Z,0.80
2019-02-10T21:59:17.894Z,0.40
2019-02-10T22:04:12.695Z,0.90
2019-02-10T22:09:07.931Z,0.70
2019-02-10T22:14:02.966Z,0.80
2019-02-10T22:18:57.729Z,0.90
2019-02-10T22:23:52.507Z,0.80
2019-02-10T22:28:47.281Z,0.97
2019-02-10T22:33:42.134Z,0.87
2019-02-10T22:38:37.158Z,0.77
2019-02-10T22:43:31.991Z,0.60
2019-02-10T22:48:26.762Z,0.73
2019-02-10T22:53:21.537Z,0.83
2019-02-10T22:58:16.305Z,0.50
2019-02-10T23:03:11.161Z,0.60
2019-02-10T23:08:05.933Z,0.53
2019-02-10T23:13:01.050Z,0.50
2019-02-10T23:17:56.088Z,0.30
2019-02-10T23:22:51.177Z,0.33
2019-02-10T23:27:46.344Z,0.27
2019-02-10T23:32:42.828Z,0.67
2019-02-10T23:37:37.600Z,0.63
2019-02-10T23:42:38.708Z,0.50
2019-02-10T23:47:33.478Z,0.70
2019-02-10T23:52:28.498Z,0.60
2019-02-10T23:57:23.746Z,0.53
